sensor_id;sensor_type;location;lat;lon;timestamp;P1;durP1;ratioP1;P2;durP2;ratioP2
20908;SDS011;10614;53.198;6.570;2023-09-12T00:01:52;38.30;;;30.25;;
20908;SDS011;10614;53.198;6.570;2023-09-12T00:03:56;38.47;;;29.63;;
20908;SDS011;10614;53.198;6.570;2023-09-12T00:05:59;48.03;;;34.22;;
20908;SDS011;10614;53.198;6.570;2023-09-12T00:08:01;49.58;;;34.97;;
20908;SDS011;10614;53.198;6.570;2023-09-12T00:10:05;38.25;;;28.95;;
20908;SDS011;10614;53.198;6.570;2023-09-12T00:12:07;37.17;;;27.38;;
20908;SDS011;10614;53.198;6.570;2023-09-12T00:14:09;37.08;;;28.00;;
20908;SDS011;10614;53.198;6.570;2023-09-12T00:16:16;36.13;;;26.92;;
20908;SDS011;10614;53.198;6.570;2023-09-12T00:18:17;37.70;;;27.98;;
20908;SDS011;10614;53.198;6.570;2023-09-12T00:20:18;36.67;;;29.00;;
20908;SDS011;10614;53.198;6.570;2023-09-12T00:22:20;36.58;;;26.33;;
20908;SDS011;10614;53.198;6.570;2023-09-12T00:24:22;35.50;;;27.13;;
20908;SDS011;10614;53.198;6.570;2023-09-12T00:26:26;40.13;;;30.42;;
20908;SDS011;10614;53.198;6.570;2023-09-12T00:28:30;36.20;;;26.98;;
20908;SDS011;10614;53.198;6.570;2023-09-12T00:30:33;33.00;;;25.73;;
20908;SDS011;10614;53.198;6.570;2023-09-12T00:32:34;29.85;;;23.88;;
20908;SDS011;10614;53.198;6.570;2023-09-12T00:34:36;36.72;;;28.17;;
20908;SDS011;10614;53.198;6.570;2023-09-12T00:36:38;36.90;;;27.90;;
20908;SDS011;10614;53.198;6.570;2023-09-12T00:38:40;38.17;;;29.27;;
20908;SDS011;10614;53.198;6.570;2023-09-12T00:40:42;33.30;;;26.83;;
20908;SDS011;10614;53.198;6.570;2023-09-12T00:42:45;35.30;;;28.80;;
20908;SDS011;10614;53.198;6.570;2023-09-12T00:44:47;41.70;;;30.75;;
20908;SDS011;10614;53.198;6.570;2023-09-12T00:46:49;40.10;;;31.50;;
20908;SDS011;10614;53.198;6.570;2023-09-12T00:48:55;43.08;;;32.08;;
20908;SDS011;10614;53.198;6.570;2023-09-12T00:50:59;40.47;;;30.77;;
20908;SDS011;10614;53.198;6.570;2023-09-12T00:53:02;43.53;;;32.47;;
20908;SDS011;10614;53.198;6.570;2023-09-12T00:55:04;38.97;;;29.73;;
20908;SDS011;10614;53.198;6.570;2023-09-12T00:57:07;40.58;;;30.88;;
20908;SDS011;10614;53.198;6.570;2023-09-12T00:59:11;35.33;;;28.52;;
20908;SDS011;10614;53.198;6.570;2023-09-12T01:01:15;40.55;;;29.85;;
20908;SDS011;10614;53.198;6.570;2023-09-12T01:03:17;39.75;;;29.98;;
20908;SDS011;10614;53.198;6.570;2023-09-12T01:05:19;47.33;;;34.60;;
20908;SDS011;10614;53.198;6.570;2023-09-12T01:07:23;43.33;;;31.77;;
20908;SDS011;10614;53.198;6.570;2023-09-12T01:09:24;39.47;;;30.33;;
20908;SDS011;10614;53.198;6.570;2023-09-12T01:11:26;39.80;;;30.92;;
20908;SDS011;10614;53.198;6.570;2023-09-12T01:13:29;39.47;;;29.15;;
20908;SDS011;10614;53.198;6.570;2023-09-12T01:15:33;39.28;;;30.27;;
20908;SDS011;10614;53.198;6.570;2023-09-12T01:17:35;46.15;;;33.25;;
20908;SDS011;10614;53.198;6.570;2023-09-12T01:19:38;43.58;;;33.10;;
20908;SDS011;10614;53.198;6.570;2023-09-12T01:24:33;37.78;;;29.17;;
20908;SDS011;10614;53.198;6.570;2023-09-12T01:27:15;38.72;;;28.83;;
20908;SDS011;10614;53.198;6.570;2023-09-12T01:29:22;44.03;;;32.35;;
20908;SDS011;10614;53.198;6.570;2023-09-12T01:31:26;47.13;;;34.22;;
20908;SDS011;10614;53.198;6.570;2023-09-12T01:33:28;41.05;;;30.95;;
20908;SDS011;10614;53.198;6.570;2023-09-12T01:35:29;42.90;;;30.23;;
20908;SDS011;10614;53.198;6.570;2023-09-12T01:37:31;38.72;;;31.08;;
20908;SDS011;10614;53.198;6.570;2023-09-12T01:39:33;40.17;;;30.70;;
20908;SDS011;10614;53.198;6.570;2023-09-12T01:41:37;41.35;;;30.65;;
20908;SDS011;10614;53.198;6.570;2023-09-12T01:43:45;43.20;;;31.90;;
20908;SDS011;10614;53.198;6.570;2023-09-12T01:45:50;42.63;;;31.00;;
20908;SDS011;10614;53.198;6.570;2023-09-12T01:47:53;38.92;;;29.80;;
20908;SDS011;10614;53.198;6.570;2023-09-12T01:49:57;48.05;;;36.20;;
20908;SDS011;10614;53.198;6.570;2023-09-12T01:52:02;41.67;;;33.33;;
20908;SDS011;10614;53.198;6.570;2023-09-12T01:54:05;46.25;;;34.70;;
20908;SDS011;10614;53.198;6.570;2023-09-12T01:56:09;41.70;;;32.90;;
20908;SDS011;10614;53.198;6.570;2023-09-12T01:58:11;41.97;;;32.47;;
20908;SDS011;10614;53.198;6.570;2023-09-12T02:00:16;41.97;;;30.85;;
20908;SDS011;10614;53.198;6.570;2023-09-12T02:02:19;50.00;;;37.42;;
20908;SDS011;10614;53.198;6.570;2023-09-12T02:04:21;53.78;;;39.67;;
20908;SDS011;10614;53.198;6.570;2023-09-12T02:06:23;49.85;;;37.95;;
20908;SDS011;10614;53.198;6.570;2023-09-12T02:08:24;49.75;;;37.10;;
20908;SDS011;10614;53.198;6.570;2023-09-12T02:10:26;51.13;;;39.30;;
20908;SDS011;10614;53.198;6.570;2023-09-12T02:12:27;51.20;;;37.60;;
20908;SDS011;10614;53.198;6.570;2023-09-12T02:14:29;49.63;;;36.50;;
20908;SDS011;10614;53.198;6.570;2023-09-12T02:16:32;51.63;;;38.70;;
20908;SDS011;10614;53.198;6.570;2023-09-12T02:18:38;45.50;;;34.45;;
20908;SDS011;10614;53.198;6.570;2023-09-12T02:20:40;41.17;;;31.50;;
20908;SDS011;10614;53.198;6.570;2023-09-12T02:22:45;37.92;;;29.65;;
20908;SDS011;10614;53.198;6.570;2023-09-12T02:24:46;43.17;;;32.40;;
20908;SDS011;10614;53.198;6.570;2023-09-12T02:26:48;40.45;;;31.38;;
20908;SDS011;10614;53.198;6.570;2023-09-12T02:28:50;40.88;;;31.63;;
20908;SDS011;10614;53.198;6.570;2023-09-12T02:30:55;38.03;;;29.42;;
20908;SDS011;10614;53.198;6.570;2023-09-12T02:32:58;36.50;;;29.33;;
20908;SDS011;10614;53.198;6.570;2023-09-12T02:35:00;40.35;;;30.85;;
20908;SDS011;10614;53.198;6.570;2023-09-12T02:37:03;39.72;;;30.20;;
20908;SDS011;10614;53.198;6.570;2023-09-12T02:39:05;44.00;;;32.58;;
20908;SDS011;10614;53.198;6.570;2023-09-12T02:41:07;47.10;;;34.60;;
20908;SDS011;10614;53.198;6.570;2023-09-12T02:43:07;46.13;;;34.72;;
20908;SDS011;10614;53.198;6.570;2023-09-12T02:45:09;51.45;;;36.70;;
20908;SDS011;10614;53.198;6.570;2023-09-12T02:47:11;49.70;;;35.00;;
20908;SDS011;10614;53.198;6.570;2023-09-12T02:49:15;57.00;;;40.05;;
20908;SDS011;10614;53.198;6.570;2023-09-12T02:51:17;46.30;;;35.10;;
20908;SDS011;10614;53.198;6.570;2023-09-12T02:53:19;50.95;;;37.47;;
20908;SDS011;10614;53.198;6.570;2023-09-12T02:55:21;49.65;;;36.67;;
20908;SDS011;10614;53.198;6.570;2023-09-12T02:57:23;51.53;;;37.35;;
20908;SDS011;10614;53.198;6.570;2023-09-12T02:59:25;55.28;;;37.35;;
20908;SDS011;10614;53.198;6.570;2023-09-12T03:01:26;54.47;;;39.20;;
20908;SDS011;10614;53.198;6.570;2023-09-12T03:03:28;48.42;;;36.13;;
20908;SDS011;10614;53.198;6.570;2023-09-12T03:05:31;46.38;;;34.13;;
20908;SDS011;10614;53.198;6.570;2023-09-12T03:07:33;54.65;;;37.42;;
20908;SDS011;10614;53.198;6.570;2023-09-12T03:09:34;46.60;;;34.00;;
20908;SDS011;10614;53.198;6.570;2023-09-12T03:11:38;55.15;;;39.08;;
20908;SDS011;10614;53.198;6.570;2023-09-12T03:13:39;51.63;;;36.47;;
20908;SDS011;10614;53.198;6.570;2023-09-12T03:15:42;45.15;;;34.10;;
20908;SDS011;10614;53.198;6.570;2023-09-12T03:17:43;53.22;;;37.28;;
20908;SDS011;10614;53.198;6.570;2023-09-12T03:19:45;45.90;;;32.90;;
20908;SDS011;10614;53.198;6.570;2023-09-12T03:21:48;43.20;;;30.63;;
20908;SDS011;10614;53.198;6.570;2023-09-12T03:23:50;39.33;;;29.83;;
20908;SDS011;10614;53.198;6.570;2023-09-12T03:25:51;40.90;;;29.92;;
20908;SDS011;10614;53.198;6.570;2023-09-12T03:27:54;45.20;;;32.67;;
20908;SDS011;10614;53.198;6.570;2023-09-12T03:29:55;46.08;;;33.20;;
20908;SDS011;10614;53.198;6.570;2023-09-12T03:31:57;46.22;;;31.83;;
20908;SDS011;10614;53.198;6.570;2023-09-12T03:33:59;49.38;;;35.70;;
20908;SDS011;10614;53.198;6.570;2023-09-12T03:36:01;45.13;;;32.47;;
20908;SDS011;10614;53.198;6.570;2023-09-12T03:38:07;51.75;;;36.13;;
20908;SDS011;10614;53.198;6.570;2023-09-12T03:40:11;40.75;;;30.00;;
20908;SDS011;10614;53.198;6.570;2023-09-12T03:42:13;41.55;;;29.55;;
20908;SDS011;10614;53.198;6.570;2023-09-12T03:44:14;41.63;;;31.90;;
20908;SDS011;10614;53.198;6.570;2023-09-12T03:46:16;45.88;;;32.40;;
20908;SDS011;10614;53.198;6.570;2023-09-12T03:48:17;42.15;;;31.25;;
20908;SDS011;10614;53.198;6.570;2023-09-12T03:50:19;42.83;;;31.15;;
20908;SDS011;10614;53.198;6.570;2023-09-12T03:52:21;37.47;;;26.65;;
20908;SDS011;10614;53.198;6.570;2023-09-12T03:54:25;40.45;;;28.33;;
20908;SDS011;10614;53.198;6.570;2023-09-12T03:56:27;42.78;;;29.65;;
20908;SDS011;10614;53.198;6.570;2023-09-12T03:58:29;41.28;;;30.77;;
20908;SDS011;10614;53.198;6.570;2023-09-12T04:00:31;47.42;;;33.25;;
20908;SDS011;10614;53.198;6.570;2023-09-12T04:02:33;51.45;;;35.53;;
20908;SDS011;10614;53.198;6.570;2023-09-12T04:04:35;54.58;;;36.65;;
20908;SDS011;10614;53.198;6.570;2023-09-12T04:06:37;42.50;;;32.38;;
20908;SDS011;10614;53.198;6.570;2023-09-12T04:08:39;42.00;;;31.25;;
20908;SDS011;10614;53.198;6.570;2023-09-12T04:10:42;51.85;;;36.05;;
20908;SDS011;10614;53.198;6.570;2023-09-12T04:12:45;53.35;;;35.67;;
20908;SDS011;10614;53.198;6.570;2023-09-12T04:14:48;47.90;;;34.30;;
20908;SDS011;10614;53.198;6.570;2023-09-12T04:16:50;45.42;;;32.30;;
20908;SDS011;10614;53.198;6.570;2023-09-12T04:18:53;45.58;;;32.42;;
20908;SDS011;10614;53.198;6.570;2023-09-12T04:20:54;48.80;;;33.83;;
20908;SDS011;10614;53.198;6.570;2023-09-12T04:22:57;41.38;;;31.00;;
20908;SDS011;10614;53.198;6.570;2023-09-12T04:25:01;40.13;;;30.35;;
20908;SDS011;10614;53.198;6.570;2023-09-12T04:27:05;42.40;;;30.90;;
20908;SDS011;10614;53.198;6.570;2023-09-12T04:29:07;45.50;;;32.17;;
20908;SDS011;10614;53.198;6.570;2023-09-12T04:31:09;49.53;;;34.92;;
20908;SDS011;10614;53.198;6.570;2023-09-12T04:33:11;49.53;;;34.20;;
20908;SDS011;10614;53.198;6.570;2023-09-12T04:35:12;47.78;;;34.53;;
20908;SDS011;10614;53.198;6.570;2023-09-12T04:37:14;48.75;;;33.45;;
20908;SDS011;10614;53.198;6.570;2023-09-12T04:39:16;55.35;;;39.03;;
20908;SDS011;10614;53.198;6.570;2023-09-12T04:41:19;53.53;;;36.90;;
20908;SDS011;10614;53.198;6.570;2023-09-12T04:43:22;61.50;;;41.22;;
20908;SDS011;10614;53.198;6.570;2023-09-12T04:45:24;54.28;;;37.67;;
20908;SDS011;10614;53.198;6.570;2023-09-12T04:47:26;57.72;;;39.50;;
20908;SDS011;10614;53.198;6.570;2023-09-12T04:49:28;55.30;;;37.17;;
20908;SDS011;10614;53.198;6.570;2023-09-12T04:51:29;60.38;;;41.35;;
20908;SDS011;10614;53.198;6.570;2023-09-12T04:53:31;55.70;;;38.47;;
20908;SDS011;10614;53.198;6.570;2023-09-12T04:55:35;55.67;;;36.60;;
20908;SDS011;10614;53.198;6.570;2023-09-12T04:57:37;51.33;;;36.30;;
20908;SDS011;10614;53.198;6.570;2023-09-12T04:59:40;49.38;;;33.80;;
20908;SDS011;10614;53.198;6.570;2023-09-12T05:01:42;48.63;;;33.63;;
20908;SDS011;10614;53.198;6.570;2023-09-12T05:03:44;48.55;;;33.38;;
20908;SDS011;10614;53.198;6.570;2023-09-12T05:05:46;43.70;;;31.50;;
20908;SDS011;10614;53.198;6.570;2023-09-12T05:07:48;46.33;;;32.58;;
20908;SDS011;10614;53.198;6.570;2023-09-12T05:09:51;48.90;;;33.78;;
20908;SDS011;10614;53.198;6.570;2023-09-12T05:11:53;49.40;;;33.35;;
20908;SDS011;10614;53.198;6.570;2023-09-12T05:13:56;50.03;;;33.47;;
20908;SDS011;10614;53.198;6.570;2023-09-12T05:16:02;49.78;;;33.03;;
20908;SDS011;10614;53.198;6.570;2023-09-12T05:18:13;44.95;;;31.73;;
20908;SDS011;10614;53.198;6.570;2023-09-12T05:20:15;51.55;;;34.70;;
20908;SDS011;10614;53.198;6.570;2023-09-12T05:22:17;49.42;;;34.47;;
20908;SDS011;10614;53.198;6.570;2023-09-12T05:24:20;57.53;;;37.00;;
20908;SDS011;10614;53.198;6.570;2023-09-12T05:26:22;55.95;;;36.08;;
20908;SDS011;10614;53.198;6.570;2023-09-12T05:28:24;59.10;;;38.90;;
20908;SDS011;10614;53.198;6.570;2023-09-12T05:30:28;65.43;;;42.53;;
20908;SDS011;10614;53.198;6.570;2023-09-12T05:32:32;66.80;;;42.88;;
20908;SDS011;10614;53.198;6.570;2023-09-12T05:34:36;66.97;;;42.40;;
20908;SDS011;10614;53.198;6.570;2023-09-12T05:36:38;61.17;;;39.13;;
20908;SDS011;10614;53.198;6.570;2023-09-12T05:38:41;64.05;;;39.55;;
20908;SDS011;10614;53.198;6.570;2023-09-12T05:40:44;57.50;;;40.53;;
20908;SDS011;10614;53.198;6.570;2023-09-12T05:42:46;56.72;;;38.72;;
20908;SDS011;10614;53.198;6.570;2023-09-12T05:44:48;54.88;;;38.50;;
20908;SDS011;10614;53.198;6.570;2023-09-12T05:46:53;61.92;;;40.13;;
20908;SDS011;10614;53.198;6.570;2023-09-12T05:48:56;60.05;;;38.92;;
20908;SDS011;10614;53.198;6.570;2023-09-12T05:50:58;57.42;;;37.55;;
20908;SDS011;10614;53.198;6.570;2023-09-12T05:53:00;55.35;;;36.95;;
20908;SDS011;10614;53.198;6.570;2023-09-12T05:55:03;56.50;;;37.90;;
20908;SDS011;10614;53.198;6.570;2023-09-12T05:57:06;53.97;;;36.20;;
20908;SDS011;10614;53.198;6.570;2023-09-12T05:59:08;58.90;;;37.00;;
20908;SDS011;10614;53.198;6.570;2023-09-12T06:01:10;57.28;;;35.90;;
20908;SDS011;10614;53.198;6.570;2023-09-12T06:07:44;70.05;;;40.42;;
20908;SDS011;10614;53.198;6.570;2023-09-12T06:09:49;65.55;;;40.83;;
20908;SDS011;10614;53.198;6.570;2023-09-12T06:11:51;59.50;;;38.17;;
20908;SDS011;10614;53.198;6.570;2023-09-12T06:13:53;56.17;;;36.30;;
20908;SDS011;10614;53.198;6.570;2023-09-12T06:15:55;65.55;;;38.60;;
20908;SDS011;10614;53.198;6.570;2023-09-12T06:17:57;68.95;;;40.25;;
20908;SDS011;10614;53.198;6.570;2023-09-12T06:19:58;61.75;;;36.42;;
20908;SDS011;10614;53.198;6.570;2023-09-12T06:22:00;64.35;;;36.72;;
20908;SDS011;10614;53.198;6.570;2023-09-12T06:24:11;70.03;;;38.13;;
20908;SDS011;10614;53.198;6.570;2023-09-12T06:26:14;68.80;;;37.13;;
20908;SDS011;10614;53.198;6.570;2023-09-12T06:28:24;78.93;;;41.63;;
20908;SDS011;10614;53.198;6.570;2023-09-12T06:30:27;72.97;;;37.72;;
20908;SDS011;10614;53.198;6.570;2023-09-12T06:32:29;75.63;;;37.75;;
20908;SDS011;10614;53.198;6.570;2023-09-12T06:34:31;61.90;;;32.63;;
20908;SDS011;10614;53.198;6.570;2023-09-12T06:36:34;71.85;;;35.90;;
20908;SDS011;10614;53.198;6.570;2023-09-12T06:38:36;73.95;;;35.75;;
20908;SDS011;10614;53.198;6.570;2023-09-12T06:40:40;73.55;;;36.22;;
20908;SDS011;10614;53.198;6.570;2023-09-12T06:42:48;70.25;;;34.40;;
20908;SDS011;10614;53.198;6.570;2023-09-12T06:44:53;68.07;;;33.17;;
20908;SDS011;10614;53.198;6.570;2023-09-12T06:46:56;63.53;;;32.97;;
20908;SDS011;10614;53.198;6.570;2023-09-12T06:48:58;68.47;;;35.72;;
20908;SDS011;10614;53.198;6.570;2023-09-12T06:51:04;78.82;;;37.78;;
20908;SDS011;10614;53.198;6.570;2023-09-12T06:53:08;63.95;;;33.88;;
20908;SDS011;10614;53.198;6.570;2023-09-12T06:55:10;58.28;;;30.80;;
20908;SDS011;10614;53.198;6.570;2023-09-12T06:57:15;65.13;;;33.67;;
20908;SDS011;10614;53.198;6.570;2023-09-12T06:59:21;66.63;;;35.88;;
20908;SDS011;10614;53.198;6.570;2023-09-12T07:01:23;79.63;;;39.75;;
20908;SDS011;10614;53.198;6.570;2023-09-12T07:03:25;76.63;;;39.40;;
20908;SDS011;10614;53.198;6.570;2023-09-12T07:05:27;76.95;;;39.70;;
20908;SDS011;10614;53.198;6.570;2023-09-12T07:07:32;75.45;;;39.22;;
20908;SDS011;10614;53.198;6.570;2023-09-12T07:09:37;66.22;;;36.17;;
20908;SDS011;10614;53.198;6.570;2023-09-12T07:11:39;64.63;;;36.55;;
20908;SDS011;10614;53.198;6.570;2023-09-12T07:13:42;89.82;;;45.05;;
20908;SDS011;10614;53.198;6.570;2023-09-12T07:15:45;77.97;;;41.15;;
20908;SDS011;10614;53.198;6.570;2023-09-12T07:17:48;75.13;;;41.35;;
20908;SDS011;10614;53.198;6.570;2023-09-12T07:19:50;76.88;;;40.90;;
20908;SDS011;10614;53.198;6.570;2023-09-12T07:21:52;75.25;;;40.38;;
20908;SDS011;10614;53.198;6.570;2023-09-12T07:23:56;75.22;;;40.95;;
20908;SDS011;10614;53.198;6.570;2023-09-12T07:26:01;74.60;;;40.60;;
20908;SDS011;10614;53.198;6.570;2023-09-12T07:28:04;75.93;;;42.30;;
20908;SDS011;10614;53.198;6.570;2023-09-12T07:30:08;69.80;;;40.17;;
20908;SDS011;10614;53.198;6.570;2023-09-12T07:32:12;81.20;;;45.13;;
20908;SDS011;10614;53.198;6.570;2023-09-12T07:34:14;73.00;;;40.72;;
20908;SDS011;10614;53.198;6.570;2023-09-12T07:36:16;63.53;;;37.67;;
20908;SDS011;10614;53.198;6.570;2023-09-12T07:38:19;65.70;;;38.60;;
20908;SDS011;10614;53.198;6.570;2023-09-12T07:40:24;64.43;;;38.33;;
20908;SDS011;10614;53.198;6.570;2023-09-12T07:42:26;64.22;;;38.47;;
20908;SDS011;10614;53.198;6.570;2023-09-12T07:44:28;66.72;;;40.00;;
20908;SDS011;10614;53.198;6.570;2023-09-12T07:46:32;63.28;;;38.50;;
20908;SDS011;10614;53.198;6.570;2023-09-12T07:48:34;60.13;;;35.60;;
20908;SDS011;10614;53.198;6.570;2023-09-12T07:50:35;70.28;;;41.60;;
20908;SDS011;10614;53.198;6.570;2023-09-12T07:52:38;60.75;;;36.33;;
20908;SDS011;10614;53.198;6.570;2023-09-12T07:54:40;59.75;;;35.95;;
20908;SDS011;10614;53.198;6.570;2023-09-12T07:56:42;61.45;;;38.40;;
20908;SDS011;10614;53.198;6.570;2023-09-12T07:58:44;56.15;;;35.95;;
20908;SDS011;10614;53.198;6.570;2023-09-12T08:00:46;60.70;;;38.10;;
20908;SDS011;10614;53.198;6.570;2023-09-12T08:02:49;58.33;;;37.92;;
20908;SDS011;10614;53.198;6.570;2023-09-12T08:04:52;58.05;;;37.22;;
20908;SDS011;10614;53.198;6.570;2023-09-12T08:06:55;54.60;;;34.78;;
20908;SDS011;10614;53.198;6.570;2023-09-12T08:08:57;52.10;;;33.33;;
20908;SDS011;10614;53.198;6.570;2023-09-12T08:11:00;55.03;;;36.05;;
20908;SDS011;10614;53.198;6.570;2023-09-12T08:13:03;58.42;;;36.03;;
20908;SDS011;10614;53.198;6.570;2023-09-12T08:15:06;58.10;;;36.60;;
20908;SDS011;10614;53.198;6.570;2023-09-12T08:17:08;53.35;;;34.72;;
20908;SDS011;10614;53.198;6.570;2023-09-12T08:19:12;50.92;;;35.03;;
20908;SDS011;10614;53.198;6.570;2023-09-12T08:21:14;67.13;;;41.78;;
20908;SDS011;10614;53.198;6.570;2023-09-12T08:23:15;55.17;;;34.90;;
20908;SDS011;10614;53.198;6.570;2023-09-12T08:25:18;57.70;;;36.80;;
20908;SDS011;10614;53.198;6.570;2023-09-12T08:27:20;57.50;;;36.28;;
20908;SDS011;10614;53.198;6.570;2023-09-12T08:29:22;75.18;;;43.17;;
20908;SDS011;10614;53.198;6.570;2023-09-12T08:31:25;62.08;;;40.95;;
20908;SDS011;10614;53.198;6.570;2023-09-12T08:33:27;70.82;;;42.65;;
20908;SDS011;10614;53.198;6.570;2023-09-12T08:35:31;62.83;;;39.75;;
20908;SDS011;10614;53.198;6.570;2023-09-12T08:37:33;56.00;;;36.35;;
20908;SDS011;10614;53.198;6.570;2023-09-12T08:39:39;60.85;;;38.60;;
20908;SDS011;10614;53.198;6.570;2023-09-12T08:41:42;66.63;;;41.75;;
20908;SDS011;10614;53.198;6.570;2023-09-12T08:43:46;62.97;;;40.22;;
20908;SDS011;10614;53.198;6.570;2023-09-12T08:45:50;56.60;;;36.97;;
20908;SDS011;10614;53.198;6.570;2023-09-12T08:47:53;58.38;;;38.30;;
20908;SDS011;10614;53.198;6.570;2023-09-12T08:49:57;57.63;;;35.58;;
20908;SDS011;10614;53.198;6.570;2023-09-12T08:52:01;53.65;;;34.58;;
20908;SDS011;10614;53.198;6.570;2023-09-12T08:54:04;53.92;;;35.60;;
20908;SDS011;10614;53.198;6.570;2023-09-12T08:56:06;54.95;;;32.67;;
20908;SDS011;10614;53.198;6.570;2023-09-12T08:58:09;45.45;;;30.13;;
20908;SDS011;10614;53.198;6.570;2023-09-12T09:00:13;47.20;;;32.20;;
20908;SDS011;10614;53.198;6.570;2023-09-12T09:02:15;48.72;;;33.15;;
20908;SDS011;10614;53.198;6.570;2023-09-12T09:04:18;45.50;;;31.92;;
20908;SDS011;10614;53.198;6.570;2023-09-12T09:06:21;46.28;;;30.42;;
20908;SDS011;10614;53.198;6.570;2023-09-12T09:08:26;47.92;;;33.38;;
20908;SDS011;10614;53.198;6.570;2023-09-12T09:10:29;46.58;;;30.85;;
20908;SDS011;10614;53.198;6.570;2023-09-12T09:12:32;42.47;;;29.02;;
20908;SDS011;10614;53.198;6.570;2023-09-12T09:14:35;46.55;;;31.48;;
20908;SDS011;10614;53.198;6.570;2023-09-12T09:16:37;48.50;;;33.30;;
20908;SDS011;10614;53.198;6.570;2023-09-12T09:18:52;45.50;;;32.15;;
20908;SDS011;10614;53.198;6.570;2023-09-12T09:20:54;53.22;;;35.15;;
20908;SDS011;10614;53.198;6.570;2023-09-12T09:22:57;43.42;;;31.13;;
20908;SDS011;10614;53.198;6.570;2023-09-12T09:25:10;50.80;;;32.23;;
20908;SDS011;10614;53.198;6.570;2023-09-12T09:27:14;46.83;;;32.20;;
20908;SDS011;10614;53.198;6.570;2023-09-12T09:29:45;50.25;;;33.90;;
20908;SDS011;10614;53.198;6.570;2023-09-12T09:31:48;42.28;;;31.58;;
20908;SDS011;10614;53.198;6.570;2023-09-12T09:33:51;41.30;;;28.98;;
20908;SDS011;10614;53.198;6.570;2023-09-12T09:35:54;40.97;;;29.23;;
20908;SDS011;10614;53.198;6.570;2023-09-12T09:38:05;41.50;;;28.73;;
20908;SDS011;10614;53.198;6.570;2023-09-12T09:40:08;46.65;;;32.40;;
20908;SDS011;10614;53.198;6.570;2023-09-12T09:42:12;50.58;;;36.95;;
20908;SDS011;10614;53.198;6.570;2023-09-12T09:44:15;49.83;;;34.67;;
20908;SDS011;10614;53.198;6.570;2023-09-12T09:46:18;44.17;;;30.77;;
20908;SDS011;10614;53.198;6.570;2023-09-12T09:48:19;48.35;;;33.58;;
20908;SDS011;10614;53.198;6.570;2023-09-12T09:50:22;47.13;;;32.33;;
20908;SDS011;10614;53.198;6.570;2023-09-12T09:52:25;41.67;;;29.95;;
20908;SDS011;10614;53.198;6.570;2023-09-12T09:54:28;46.72;;;30.42;;
20908;SDS011;10614;53.198;6.570;2023-09-12T09:56:31;40.58;;;28.50;;
20908;SDS011;10614;53.198;6.570;2023-09-12T09:58:37;43.25;;;28.83;;
20908;SDS011;10614;53.198;6.570;2023-09-12T10:00:47;45.65;;;31.65;;
20908;SDS011;10614;53.198;6.570;2023-09-12T10:02:51;48.08;;;32.03;;
20908;SDS011;10614;53.198;6.570;2023-09-12T10:04:53;46.88;;;32.25;;
20908;SDS011;10614;53.198;6.570;2023-09-12T10:06:57;44.92;;;30.58;;
20908;SDS011;10614;53.198;6.570;2023-09-12T10:08:59;47.40;;;31.88;;
20908;SDS011;10614;53.198;6.570;2023-09-12T10:11:03;43.25;;;31.00;;
20908;SDS011;10614;53.198;6.570;2023-09-12T10:13:05;44.58;;;30.38;;
20908;SDS011;10614;53.198;6.570;2023-09-12T10:15:10;45.65;;;31.52;;
20908;SDS011;10614;53.198;6.570;2023-09-12T10:17:14;42.30;;;29.90;;
20908;SDS011;10614;53.198;6.570;2023-09-12T10:19:24;41.45;;;29.52;;
20908;SDS011;10614;53.198;6.570;2023-09-12T10:21:31;45.60;;;32.08;;
20908;SDS011;10614;53.198;6.570;2023-09-12T10:23:37;44.22;;;31.52;;
20908;SDS011;10614;53.198;6.570;2023-09-12T10:25:42;38.63;;;28.63;;
20908;SDS011;10614;53.198;6.570;2023-09-12T10:27:45;41.03;;;29.75;;
20908;SDS011;10614;53.198;6.570;2023-09-12T10:29:47;42.58;;;30.08;;
20908;SDS011;10614;53.198;6.570;2023-09-12T10:33:56;37.95;;;27.35;;
20908;SDS011;10614;53.198;6.570;2023-09-12T10:36:00;39.47;;;28.77;;
20908;SDS011;10614;53.198;6.570;2023-09-12T10:40:07;36.85;;;26.63;;
20908;SDS011;10614;53.198;6.570;2023-09-12T10:42:11;38.10;;;27.27;;
20908;SDS011;10614;53.198;6.570;2023-09-12T10:44:15;33.30;;;24.40;;
20908;SDS011;10614;53.198;6.570;2023-09-12T10:46:17;41.78;;;28.50;;
20908;SDS011;10614;53.198;6.570;2023-09-12T10:48:22;34.47;;;26.00;;
20908;SDS011;10614;53.198;6.570;2023-09-12T10:50:24;39.22;;;25.70;;
20908;SDS011;10614;53.198;6.570;2023-09-12T10:52:26;32.90;;;23.25;;
20908;SDS011;10614;53.198;6.570;2023-09-12T10:54:35;32.50;;;23.75;;
20908;SDS011;10614;53.198;6.570;2023-09-12T10:56:38;34.97;;;25.75;;
20908;SDS011;10614;53.198;6.570;2023-09-12T11:01:22;34.45;;;25.50;;
20908;SDS011;10614;53.198;6.570;2023-09-12T11:03:37;34.75;;;24.02;;
20908;SDS011;10614;53.198;6.570;2023-09-12T11:05:50;41.13;;;29.55;;
20908;SDS011;10614;53.198;6.570;2023-09-12T11:07:55;34.67;;;26.38;;
20908;SDS011;10614;53.198;6.570;2023-09-12T11:12:34;30.42;;;23.90;;
20908;SDS011;10614;53.198;6.570;2023-09-12T11:14:39;39.13;;;26.75;;
20908;SDS011;10614;53.198;6.570;2023-09-12T11:19:30;39.65;;;27.77;;
20908;SDS011;10614;53.198;6.570;2023-09-12T11:21:46;42.50;;;29.42;;
20908;SDS011;10614;53.198;6.570;2023-09-12T11:23:53;31.73;;;24.58;;
20908;SDS011;10614;53.198;6.570;2023-09-12T11:26:05;37.08;;;26.52;;
20908;SDS011;10614;53.198;6.570;2023-09-12T11:28:07;36.90;;;28.20;;
20908;SDS011;10614;53.198;6.570;2023-09-12T11:30:10;39.13;;;27.33;;
20908;SDS011;10614;53.198;6.570;2023-09-12T11:32:11;39.45;;;27.83;;
20908;SDS011;10614;53.198;6.570;2023-09-12T11:34:29;35.67;;;23.30;;
20908;SDS011;10614;53.198;6.570;2023-09-12T11:36:39;35.95;;;23.65;;
20908;SDS011;10614;53.198;6.570;2023-09-12T11:38:43;38.67;;;27.17;;
20908;SDS011;10614;53.198;6.570;2023-09-12T11:40:51;34.03;;;24.92;;
20908;SDS011;10614;53.198;6.570;2023-09-12T11:42:53;41.15;;;25.85;;
20908;SDS011;10614;53.198;6.570;2023-09-12T11:44:55;33.10;;;24.10;;
20908;SDS011;10614;53.198;6.570;2023-09-12T11:46:59;33.42;;;24.35;;
20908;SDS011;10614;53.198;6.570;2023-09-12T11:49:06;34.15;;;25.35;;
20908;SDS011;10614;53.198;6.570;2023-09-12T11:51:09;32.88;;;25.40;;
20908;SDS011;10614;53.198;6.570;2023-09-12T11:53:12;34.00;;;24.58;;
20908;SDS011;10614;53.198;6.570;2023-09-12T11:55:21;30.40;;;21.90;;
20908;SDS011;10614;53.198;6.570;2023-09-12T11:57:24;28.40;;;20.85;;
20908;SDS011;10614;53.198;6.570;2023-09-12T11:59:26;34.67;;;26.88;;
20908;SDS011;10614;53.198;6.570;2023-09-12T12:01:28;34.15;;;24.52;;
20908;SDS011;10614;53.198;6.570;2023-09-12T12:03:30;30.83;;;22.85;;
20908;SDS011;10614;53.198;6.570;2023-09-12T12:05:33;29.08;;;22.95;;
20908;SDS011;10614;53.198;6.570;2023-09-12T12:07:37;30.63;;;22.67;;
20908;SDS011;10614;53.198;6.570;2023-09-12T12:09:42;28.70;;;21.10;;
20908;SDS011;10614;53.198;6.570;2023-09-12T12:11:47;30.88;;;24.13;;
20908;SDS011;10614;53.198;6.570;2023-09-12T12:13:49;36.38;;;26.73;;
20908;SDS011;10614;53.198;6.570;2023-09-12T12:15:52;34.58;;;25.10;;
20908;SDS011;10614;53.198;6.570;2023-09-12T12:17:54;33.30;;;22.63;;
20908;SDS011;10614;53.198;6.570;2023-09-12T12:19:56;32.83;;;23.75;;
20908;SDS011;10614;53.198;6.570;2023-09-12T12:24:04;35.50;;;22.70;;